sensor_id;sensor_type;location;lat;lon;timestamp;P1;durP1;ratioP1;P2;durP2;ratioP2
59830;SDS011;45711;50.108;13.712;2024-02-23T00:00:10;0.77;;;0.60;;
59830;SDS011;45711;50.108;13.712;2024-02-23T00:02:37;1.52;;;1.00;;
59830;SDS011;45711;50.108;13.712;2024-02-23T00:05:03;1.10;;;0.75;;
59830;SDS011;45711;50.108;13.712;2024-02-23T00:07:29;4.03;;;0.90;;
59830;SDS011;45711;50.108;13.712;2024-02-23T00:09:56;1.25;;;0.80;;
59830;SDS011;45711;50.108;13.712;2024-02-23T00:12:21;1.00;;;0.90;;
59830;SDS011;45711;50.108;13.712;2024-02-23T00:14:47;1.70;;;1.00;;
59830;SDS011;45711;50.108;13.712;2024-02-23T00:17:13;1.00;;;0.80;;
59830;SDS011;45711;50.108;13.712;2024-02-23T00:19:38;1.15;;;0.80;;
59830;SDS011;45711;50.108;13.712;2024-02-23T00:22:04;1.02;;;0.77;;
59830;SDS011;45711;50.108;13.712;2024-02-23T00:24:29;0.90;;;0.70;;
59830;SDS011;45711;50.108;13.712;2024-02-23T00:26:57;1.98;;;0.85;;
59830;SDS011;45711;50.108;13.712;2024-02-23T00:29:22;1.27;;;0.88;;
59830;SDS011;45711;50.108;13.712;2024-02-23T00:31:48;1.98;;;0.88;;
59830;SDS011;45711;50.108;13.712;2024-02-23T00:34:14;1.35;;;0.95;;
59830;SDS011;45711;50.108;13.712;2024-02-23T00:36:40;1.85;;;0.70;;
59830;SDS011;45711;50.108;13.712;2024-02-23T00:39:06;0.93;;;0.50;;
59830;SDS011;45711;50.108;13.712;2024-02-23T00:41:32;1.08;;;0.70;;
59830;SDS011;45711;50.108;13.712;2024-02-23T00:43:59;0.82;;;0.60;;
59830;SDS011;45711;50.108;13.712;2024-02-23T00:46:25;1.17;;;0.90;;
59830;SDS011;45711;50.108;13.712;2024-02-23T00:48:50;1.45;;;0.73;;
59830;SDS011;45711;50.108;13.712;2024-02-23T00:51:16;0.80;;;0.60;;
59830;SDS011;45711;50.108;13.712;2024-02-23T00:53:41;1.50;;;0.68;;
59830;SDS011;45711;50.108;13.712;2024-02-23T00:56:07;1.63;;;0.77;;
59830;SDS011;45711;50.108;13.712;2024-02-23T00:58:33;1.00;;;0.70;;
59830;SDS011;45711;50.108;13.712;2024-02-23T01:01:00;1.02;;;0.80;;
59830;SDS011;45711;50.108;13.712;2024-02-23T01:03:25;2.70;;;0.82;;
59830;SDS011;45711;50.108;13.712;2024-02-23T01:05:51;1.40;;;0.68;;
59830;SDS011;45711;50.108;13.712;2024-02-23T01:08:17;0.70;;;0.68;;
59830;SDS011;45711;50.108;13.712;2024-02-23T01:10:42;1.27;;;0.73;;
59830;SDS011;45711;50.108;13.712;2024-02-23T01:13:08;1.20;;;0.70;;
59830;SDS011;45711;50.108;13.712;2024-02-23T01:15:33;1.10;;;0.80;;
59830;SDS011;45711;50.108;13.712;2024-02-23T01:18:00;2.53;;;0.88;;
59830;SDS011;45711;50.108;13.712;2024-02-23T01:20:26;1.67;;;0.70;;
59830;SDS011;45711;50.108;13.712;2024-02-23T01:22:51;0.85;;;0.75;;
59830;SDS011;45711;50.108;13.712;2024-02-23T01:25:17;1.98;;;0.88;;
59830;SDS011;45711;50.108;13.712;2024-02-23T01:27:42;1.48;;;0.80;;
59830;SDS011;45711;50.108;13.712;2024-02-23T01:30:09;1.17;;;0.63;;
59830;SDS011;45711;50.108;13.712;2024-02-23T01:32:36;1.95;;;0.77;;
59830;SDS011;45711;50.108;13.712;2024-02-23T01:35:05;0.82;;;0.52;;
59830;SDS011;45711;50.108;13.712;2024-02-23T01:37:31;1.75;;;0.60;;
59830;SDS011;45711;50.108;13.712;2024-02-23T01:39:57;1.45;;;0.57;;
59830;SDS011;45711;50.108;13.712;2024-02-23T01:42:23;1.35;;;0.60;;
59830;SDS011;45711;50.108;13.712;2024-02-23T01:44:49;0.93;;;0.60;;
59830;SDS011;45711;50.108;13.712;2024-02-23T01:47:14;1.23;;;0.75;;
59830;SDS011;45711;50.108;13.712;2024-02-23T01:49:40;1.02;;;0.68;;
59830;SDS011;45711;50.108;13.712;2024-02-23T01:52:08;1.02;;;0.55;;
59830;SDS011;45711;50.108;13.712;2024-02-23T01:54:34;1.00;;;0.40;;
59830;SDS011;45711;50.108;13.712;2024-02-23T01:56:59;1.08;;;0.50;;
59830;SDS011;45711;50.108;13.712;2024-02-23T01:59:25;1.73;;;0.82;;
59830;SDS011;45711;50.108;13.712;2024-02-23T02:01:52;1.15;;;0.50;;
59830;SDS011;45711;50.108;13.712;2024-02-23T02:04:17;0.90;;;0.57;;
59830;SDS011;45711;50.108;13.712;2024-02-23T02:06:44;1.92;;;0.57;;
59830;SDS011;45711;50.108;13.712;2024-02-23T02:09:12;1.80;;;0.50;;
59830;SDS011;45711;50.108;13.712;2024-02-23T02:11:44;0.55;;;0.50;;
59830;SDS011;45711;50.108;13.712;2024-02-23T02:14:10;2.08;;;0.80;;
59830;SDS011;45711;50.108;13.712;2024-02-23T02:16:36;0.98;;;0.40;;
59830;SDS011;45711;50.108;13.712;2024-02-23T02:19:01;0.50;;;0.40;;
59830;SDS011;45711;50.108;13.712;2024-02-23T02:21:27;2.15;;;0.40;;
59830;SDS011;45711;50.108;13.712;2024-02-23T02:23:53;1.25;;;0.50;;
59830;SDS011;45711;50.108;13.712;2024-02-23T02:26:20;0.70;;;0.50;;
59830;SDS011;45711;50.108;13.712;2024-02-23T02:28:46;1.05;;;0.30;;
59830;SDS011;45711;50.108;13.712;2024-02-23T02:31:12;0.77;;;0.30;;
59830;SDS011;45711;50.108;13.712;2024-02-23T02:33:37;0.75;;;0.40;;
59830;SDS011;45711;50.108;13.712;2024-02-23T02:36:05;0.85;;;0.40;;
59830;SDS011;45711;50.108;13.712;2024-02-23T02:38:30;0.40;;;0.40;;
59830;SDS011;45711;50.108;13.712;2024-02-23T02:40:58;0.60;;;0.60;;
59830;SDS011;45711;50.108;13.712;2024-02-23T02:43:26;0.55;;;0.45;;
59830;SDS011;45711;50.108;13.712;2024-02-23T02:45:52;0.60;;;0.40;;
59830;SDS011;45711;50.108;13.712;2024-02-23T02:48:17;0.80;;;0.40;;
59830;SDS011;45711;50.108;13.712;2024-02-23T02:50:43;1.23;;;0.47;;
59830;SDS011;45711;50.108;13.712;2024-02-23T02:53:09;1.38;;;0.73;;
59830;SDS011;45711;50.108;13.712;2024-02-23T02:55:35;0.50;;;0.30;;
59830;SDS011;45711;50.108;13.712;2024-02-23T02:58:00;1.65;;;0.35;;
59830;SDS011;45711;50.108;13.712;2024-02-23T03:00:28;1.10;;;0.63;;
59830;SDS011;45711;50.108;13.712;2024-02-23T03:02:53;1.23;;;0.50;;
59830;SDS011;45711;50.108;13.712;2024-02-23T03:05:19;0.45;;;0.30;;
59830;SDS011;45711;50.108;13.712;2024-02-23T03:07:44;1.05;;;0.50;;
59830;SDS011;45711;50.108;13.712;2024-02-23T03:10:10;0.45;;;0.32;;
59830;SDS011;45711;50.108;13.712;2024-02-23T03:12:36;0.60;;;0.40;;
59830;SDS011;45711;50.108;13.712;2024-02-23T03:15:01;0.30;;;0.30;;
59830;SDS011;45711;50.108;13.712;2024-02-23T03:17:29;0.77;;;0.40;;
59830;SDS011;45711;50.108;13.712;2024-02-23T03:19:54;1.55;;;0.50;;
59830;SDS011;45711;50.108;13.712;2024-02-23T03:22:20;0.68;;;0.47;;
59830;SDS011;45711;50.108;13.712;2024-02-23T03:24:45;5.65;;;0.50;;
59830;SDS011;45711;50.108;13.712;2024-02-23T03:27:11;1.00;;;0.40;;
59830;SDS011;45711;50.108;13.712;2024-02-23T03:29:37;2.28;;;0.35;;
59830;SDS011;45711;50.108;13.712;2024-02-23T03:32:03;4.57;;;0.77;;
59830;SDS011;45711;50.108;13.712;2024-02-23T03:34:30;0.32;;;0.30;;
59830;SDS011;45711;50.108;13.712;2024-02-23T03:36:56;1.45;;;0.50;;
59830;SDS011;45711;50.108;13.712;2024-02-23T03:39:23;0.40;;;0.30;;
59830;SDS011;45711;50.108;13.712;2024-02-23T03:41:48;0.38;;;0.38;;
59830;SDS011;45711;50.108;13.712;2024-02-23T03:44:14;0.90;;;0.30;;
59830;SDS011;45711;50.108;13.712;2024-02-23T03:46:39;2.08;;;0.43;;
59830;SDS011;45711;50.108;13.712;2024-02-23T03:49:05;0.43;;;0.30;;
59830;SDS011;45711;50.108;13.712;2024-02-23T03:51:32;1.20;;;0.30;;
59830;SDS011;45711;50.108;13.712;2024-02-23T03:54:00;0.85;;;0.30;;
59830;SDS011;45711;50.108;13.712;2024-02-23T03:56:28;0.95;;;0.47;;
59830;SDS011;45711;50.108;13.712;2024-02-23T03:58:53;0.30;;;0.30;;
59830;SDS011;45711;50.108;13.712;2024-02-23T04:01:19;0.50;;;0.40;;
59830;SDS011;45711;50.108;13.712;2024-02-23T04:03:44;0.20;;;0.20;;
59830;SDS011;45711;50.108;13.712;2024-02-23T04:06:10;0.60;;;0.40;;
59830;SDS011;45711;50.108;13.712;2024-02-23T04:08:37;1.02;;;0.22;;
59830;SDS011;45711;50.108;13.712;2024-02-23T04:11:02;0.40;;;0.22;;
59830;SDS011;45711;50.108;13.712;2024-02-23T04:13:28;1.05;;;0.40;;
59830;SDS011;45711;50.108;13.712;2024-02-23T04:15:53;2.25;;;0.20;;
59830;SDS011;45711;50.108;13.712;2024-02-23T04:18:19;0.43;;;0.28;;
59830;SDS011;45711;50.108;13.712;2024-02-23T04:20:45;0.80;;;0.40;;
59830;SDS011;45711;50.108;13.712;2024-02-23T04:23:10;0.30;;;0.30;;
59830;SDS011;45711;50.108;13.712;2024-02-23T04:25:37;1.52;;;0.30;;
59830;SDS011;45711;50.108;13.712;2024-02-23T04:28:02;1.50;;;0.40;;
59830;SDS011;45711;50.108;13.712;2024-02-23T04:30:28;0.47;;;0.38;;
59830;SDS011;45711;50.108;13.712;2024-02-23T04:32:54;1.50;;;0.40;;
59830;SDS011;45711;50.108;13.712;2024-02-23T04:35:19;0.30;;;0.30;;
59830;SDS011;45711;50.108;13.712;2024-02-23T04:37:45;2.42;;;0.40;;
59830;SDS011;45711;50.108;13.712;2024-02-23T04:40:11;0.63;;;0.35;;
59830;SDS011;45711;50.108;13.712;2024-02-23T04:42:38;0.65;;;0.45;;
59830;SDS011;45711;50.108;13.712;2024-02-23T04:45:04;0.47;;;0.30;;
59830;SDS011;45711;50.108;13.712;2024-02-23T04:47:30;0.60;;;0.40;;
59830;SDS011;45711;50.108;13.712;2024-02-23T04:49:57;1.00;;;0.30;;
59830;SDS011;45711;50.108;13.712;2024-02-23T04:52:23;0.43;;;0.30;;
59830;SDS011;45711;50.108;13.712;2024-02-23T04:54:48;5.05;;;0.50;;
59830;SDS011;45711;50.108;13.712;2024-02-23T04:57:14;1.85;;;0.40;;
59830;SDS011;45711;50.108;13.712;2024-02-23T04:59:41;0.93;;;0.40;;
59830;SDS011;45711;50.108;13.712;2024-02-23T05:02:06;0.47;;;0.30;;
59830;SDS011;45711;50.108;13.712;2024-02-23T05:04:32;5.07;;;0.38;;
59830;SDS011;45711;50.108;13.712;2024-02-23T05:06:58;1.10;;;0.40;;
59830;SDS011;45711;50.108;13.712;2024-02-23T05:09:23;0.95;;;0.30;;
59830;SDS011;45711;50.108;13.712;2024-02-23T05:11:49;1.55;;;0.60;;
59830;SDS011;45711;50.108;13.712;2024-02-23T05:14:15;1.13;;;0.47;;
59830;SDS011;45711;50.108;13.712;2024-02-23T05:16:41;1.42;;;0.47;;
59830;SDS011;45711;50.108;13.712;2024-02-23T05:19:07;9.05;;;1.52;;
59830;SDS011;45711;50.108;13.712;2024-02-23T05:21:32;2.78;;;0.47;;
59830;SDS011;45711;50.108;13.712;2024-02-23T05:23:58;2.17;;;0.50;;
59830;SDS011;45711;50.108;13.712;2024-02-23T05:26:24;1.08;;;0.40;;
59830;SDS011;45711;50.108;13.712;2024-02-23T05:28:50;0.75;;;0.30;;
59830;SDS011;45711;50.108;13.712;2024-02-23T05:31:16;0.40;;;0.30;;
59830;SDS011;45711;50.108;13.712;2024-02-23T05:33:43;0.32;;;0.30;;
59830;SDS011;45711;50.108;13.712;2024-02-23T05:36:09;0.40;;;0.30;;
59830;SDS011;45711;50.108;13.712;2024-02-23T05:38:34;4.38;;;0.70;;
59830;SDS011;45711;50.108;13.712;2024-02-23T05:41:00;3.30;;;0.57;;
59830;SDS011;45711;50.108;13.712;2024-02-23T05:43:26;0.77;;;0.47;;
59830;SDS011;45711;50.108;13.712;2024-02-23T05:45:51;1.70;;;0.50;;
59830;SDS011;45711;50.108;13.712;2024-02-23T05:48:17;4.10;;;0.73;;
59830;SDS011;45711;50.108;13.712;2024-02-23T05:50:45;0.82;;;0.40;;
59830;SDS011;45711;50.108;13.712;2024-02-23T05:53:10;1.25;;;0.60;;
59830;SDS011;45711;50.108;13.712;2024-02-23T05:55:36;0.30;;;0.30;;
59830;SDS011;45711;50.108;13.712;2024-02-23T05:58:02;2.00;;;0.60;;
59830;SDS011;45711;50.108;13.712;2024-02-23T06:00:28;2.03;;;0.40;;
59830;SDS011;45711;50.108;13.712;2024-02-23T06:02:55;1.05;;;0.32;;
59830;SDS011;45711;50.108;13.712;2024-02-23T06:05:20;0.55;;;0.40;;
59830;SDS011;45711;50.108;13.712;2024-02-23T06:07:47;3.45;;;0.55;;
59830;SDS011;45711;50.108;13.712;2024-02-23T06:10:12;3.00;;;0.68;;
59830;SDS011;45711;50.108;13.712;2024-02-23T06:12:38;2.25;;;0.75;;
59830;SDS011;45711;50.108;13.712;2024-02-23T06:15:04;1.95;;;0.63;;
59830;SDS011;45711;50.108;13.712;2024-02-23T06:17:31;4.03;;;0.50;;
59830;SDS011;45711;50.108;13.712;2024-02-23T06:20:02;2.35;;;0.70;;
59830;SDS011;45711;50.108;13.712;2024-02-23T06:22:34;1.17;;;0.50;;
59830;SDS011;45711;50.108;13.712;2024-02-23T06:25:01;0.55;;;0.43;;
59830;SDS011;45711;50.108;13.712;2024-02-23T06:27:27;0.50;;;0.30;;
59830;SDS011;45711;50.108;13.712;2024-02-23T06:29:55;0.52;;;0.40;;
59830;SDS011;45711;50.108;13.712;2024-02-23T06:32:20;0.80;;;0.43;;
59830;SDS011;45711;50.108;13.712;2024-02-23T06:34:46;1.27;;;0.40;;
59830;SDS011;45711;50.108;13.712;2024-02-23T06:37:11;3.15;;;0.63;;
59830;SDS011;45711;50.108;13.712;2024-02-23T06:39:38;1.77;;;0.60;;
59830;SDS011;45711;50.108;13.712;2024-02-23T06:42:05;1.80;;;0.30;;
59830;SDS011;45711;50.108;13.712;2024-02-23T06:44:31;4.32;;;0.60;;
59830;SDS011;45711;50.108;13.712;2024-02-23T06:46:57;1.38;;;0.57;;
59830;SDS011;45711;50.108;13.712;2024-02-23T06:49:22;1.13;;;0.60;;
59830;SDS011;45711;50.108;13.712;2024-02-23T06:51:48;1.25;;;0.52;;
59830;SDS011;45711;50.108;13.712;2024-02-23T06:54:13;1.52;;;0.60;;
59830;SDS011;45711;50.108;13.712;2024-02-23T06:56:39;2.10;;;0.60;;
59830;SDS011;45711;50.108;13.712;2024-02-23T06:59:06;1.45;;;0.60;;
59830;SDS011;45711;50.108;13.712;2024-02-23T07:01:31;1.05;;;0.43;;
59830;SDS011;45711;50.108;13.712;2024-02-23T07:03:58;2.60;;;0.60;;
59830;SDS011;45711;50.108;13.712;2024-02-23T07:06:24;0.93;;;0.40;;
59830;SDS011;45711;50.108;13.712;2024-02-23T07:08:50;3.75;;;0.93;;
59830;SDS011;45711;50.108;13.712;2024-02-23T07:11:15;4.65;;;0.60;;
59830;SDS011;45711;50.108;13.712;2024-02-23T07:13:42;1.88;;;0.40;;
59830;SDS011;45711;50.108;13.712;2024-02-23T07:16:09;2.20;;;0.65;;
59830;SDS011;45711;50.108;13.712;2024-02-23T07:18:34;1.75;;;0.43;;
59830;SDS011;45711;50.108;13.712;2024-02-23T07:21:00;4.63;;;0.82;;
59830;SDS011;45711;50.108;13.712;2024-02-23T07:23:26;0.88;;;0.50;;
59830;SDS011;45711;50.108;13.712;2024-02-23T07:25:52;2.08;;;0.60;;
59830;SDS011;45711;50.108;13.712;2024-02-23T07:28:18;4.18;;;0.52;;
59830;SDS011;45711;50.108;13.712;2024-02-23T07:30:44;2.00;;;0.40;;
59830;SDS011;45711;50.108;13.712;2024-02-23T07:33:11;1.10;;;0.57;;
59830;SDS011;45711;50.108;13.712;2024-02-23T07:35:37;0.70;;;0.30;;
59830;SDS011;45711;50.108;13.712;2024-02-23T07:38:03;1.67;;;0.63;;
59830;SDS011;45711;50.108;13.712;2024-02-23T07:40:29;1.33;;;0.70;;
59830;SDS011;45711;50.108;13.712;2024-02-23T07:42:57;2.10;;;0.50;;
59830;SDS011;45711;50.108;13.712;2024-02-23T07:45:22;1.83;;;0.50;;
59830;SDS011;45711;50.108;13.712;2024-02-23T07:47:48;1.73;;;0.40;;
59830;SDS011;45711;50.108;13.712;2024-02-23T07:50:15;1.08;;;0.40;;
59830;SDS011;45711;50.108;13.712;2024-02-23T07:52:41;2.67;;;0.60;;
59830;SDS011;45711;50.108;13.712;2024-02-23T07:55:06;3.22;;;0.68;;
59830;SDS011;45711;50.108;13.712;2024-02-23T07:57:33;5.95;;;0.68;;
59830;SDS011;45711;50.108;13.712;2024-02-23T07:59:59;1.27;;;0.60;;
59830;SDS011;45711;50.108;13.712;2024-02-23T08:02:25;4.60;;;0.70;;
59830;SDS011;45711;50.108;13.712;2024-02-23T08:04:51;1.27;;;0.47;;
59830;SDS011;45711;50.108;13.712;2024-02-23T08:07:18;1.20;;;0.40;;
59830;SDS011;45711;50.108;13.712;2024-02-23T08:09:44;5.18;;;0.65;;
59830;SDS011;45711;50.108;13.712;2024-02-23T08:12:09;1.45;;;0.60;;
59830;SDS011;45711;50.108;13.712;2024-02-23T08:14:36;1.60;;;0.55;;
59830;SDS011;45711;50.108;13.712;2024-02-23T08:17:02;2.28;;;0.50;;
59830;SDS011;45711;50.108;13.712;2024-02-23T08:19:27;4.13;;;0.75;;
59830;SDS011;45711;50.108;13.712;2024-02-23T08:21:53;1.67;;;0.60;;
59830;SDS011;45711;50.108;13.712;2024-02-23T08:24:20;1.35;;;0.50;;
59830;SDS011;45711;50.108;13.712;2024-02-23T08:26:46;1.73;;;0.70;;
59830;SDS011;45711;50.108;13.712;2024-02-23T08:29:11;2.92;;;0.80;;
59830;SDS011;45711;50.108;13.712;2024-02-23T08:31:37;1.75;;;0.60;;
59830;SDS011;45711;50.108;13.712;2024-02-23T08:34:02;2.25;;;0.82;;
59830;SDS011;45711;50.108;13.712;2024-02-23T08:36:28;2.10;;;0.60;;
59830;SDS011;45711;50.108;13.712;2024-02-23T08:38:54;3.20;;;0.80;;
59830;SDS011;45711;50.108;13.712;2024-02-23T08:41:21;2.78;;;0.60;;
59830;SDS011;45711;50.108;13.712;2024-02-23T08:43:46;1.88;;;0.80;;
59830;SDS011;45711;50.108;13.712;2024-02-23T08:46:12;3.00;;;0.68;;
59830;SDS011;45711;50.108;13.712;2024-02-23T08:48:38;1.10;;;0.50;;
59830;SDS011;45711;50.108;13.712;2024-02-23T08:51:03;3.90;;;1.20;;
59830;SDS011;45711;50.108;13.712;2024-02-23T08:53:29;4.30;;;1.83;;
59830;SDS011;45711;50.108;13.712;2024-02-23T08:55:54;6.30;;;1.90;;
59830;SDS011;45711;50.108;13.712;2024-02-23T08:58:21;3.67;;;1.50;;
59830;SDS011;45711;50.108;13.712;2024-02-23T09:00:47;5.25;;;1.33;;
59830;SDS011;45711;50.108;13.712;2024-02-23T09:03:13;4.00;;;1.60;;
59830;SDS011;45711;50.108;13.712;2024-02-23T09:05:39;9.50;;;1.98;;
59830;SDS011;45711;50.108;13.712;2024-02-23T09:08:06;7.18;;;1.35;;
59830;SDS011;45711;50.108;13.712;2024-02-23T09:10:32;5.95;;;1.23;;
59830;SDS011;45711;50.108;13.712;2024-02-23T09:12:57;7.32;;;1.00;;
59830;SDS011;45711;50.108;13.712;2024-02-23T09:15:24;1.60;;;0.73;;
59830;SDS011;45711;50.108;13.712;2024-02-23T09:17:49;3.75;;;1.08;;
59830;SDS011;45711;50.108;13.712;2024-02-23T09:20:15;3.65;;;0.80;;
59830;SDS011;45711;50.108;13.712;2024-02-23T09:22:41;4.25;;;1.52;;
59830;SDS011;45711;50.108;13.712;2024-02-23T09:25:07;6.28;;;1.08;;
59830;SDS011;45711;50.108;13.712;2024-02-23T09:27:33;4.82;;;1.02;;
59830;SDS011;45711;50.108;13.712;2024-02-23T09:30:01;2.70;;;0.60;;
59830;SDS011;45711;50.108;13.712;2024-02-23T09:32:28;0.70;;;0.50;;
59830;SDS011;45711;50.108;13.712;2024-02-23T09:34:54;7.93;;;0.85;;
59830;SDS011;45711;50.108;13.712;2024-02-23T09:37:19;4.05;;;1.02;;
59830;SDS011;45711;50.108;13.712;2024-02-23T09:39:45;1.52;;;0.70;;
59830;SDS011;45711;50.108;13.712;2024-02-23T09:42:11;1.98;;;0.70;;
59830;SDS011;45711;50.108;13.712;2024-02-23T09:44:36;3.88;;;1.13;;
59830;SDS011;45711;50.108;13.712;2024-02-23T09:47:02;1.65;;;0.82;;
59830;SDS011;45711;50.108;13.712;2024-02-23T09:49:34;2.47;;;0.65;;
59830;SDS011;45711;50.108;13.712;2024-02-23T09:52:03;2.03;;;0.60;;
59830;SDS011;45711;50.108;13.712;2024-02-23T09:54:31;3.63;;;0.50;;
59830;SDS011;45711;50.108;13.712;2024-02-23T09:56:57;2.90;;;0.88;;
59830;SDS011;45711;50.108;13.712;2024-02-23T09:59:23;6.07;;;0.90;;
59830;SDS011;45711;50.108;13.712;2024-02-23T10:01:55;6.45;;;1.00;;
59830;SDS011;45711;50.108;13.712;2024-02-23T10:04:25;2.35;;;0.70;;
59830;SDS011;45711;50.108;13.712;2024-02-23T10:06:55;2.25;;;0.65;;
59830;SDS011;45711;50.108;13.712;2024-02-23T10:09:21;2.92;;;0.60;;
59830;SDS011;45711;50.108;13.712;2024-02-23T10:11:51;1.38;;;0.45;;
59830;SDS011;45711;50.108;13.712;2024-02-23T10:14:19;4.20;;;0.80;;
59830;SDS011;45711;50.108;13.712;2024-02-23T10:16:44;2.08;;;0.40;;
59830;SDS011;45711;50.108;13.712;2024-02-23T10:19:17;0.33;;;0.20;;
59830;SDS011;45711;50.108;13.712;2024-02-23T10:21:46;1.40;;;0.40;;
59830;SDS011;45711;50.108;13.712;2024-02-23T10:24:13;1.45;;;0.40;;
59830;SDS011;45711;50.108;13.712;2024-02-23T10:26:41;1.05;;;0.47;;
59830;SDS011;45711;50.108;13.712;2024-02-23T10:29:07;2.50;;;0.50;;
59830;SDS011;45711;50.108;13.712;2024-02-23T10:31:34;2.55;;;0.55;;
59830;SDS011;45711;50.108;13.712;2024-02-23T10:34:05;2.25;;;0.90;;
59830;SDS011;45711;50.108;13.712;2024-02-23T10:36:37;1.02;;;0.60;;
59830;SDS011;45711;50.108;13.712;2024-02-23T10:39:05;3.10;;;0.60;;
59830;SDS011;45711;50.108;13.712;2024-02-23T10:41:39;1.23;;;0.63;;
59830;SDS011;45711;50.108;13.712;2024-02-23T10:44:08;1.50;;;0.65;;
59830;SDS011;45711;50.108;13.712;2024-02-23T10:46:37;2.53;;;0.50;;
59830;SDS011;45711;50.108;13.712;2024-02-23T10:49:05;1.05;;;0.30;;
59830;SDS011;45711;50.108;13.712;2024-02-23T10:51:32;2.85;;;0.50;;
59830;SDS011;45711;50.108;13.712;2024-02-23T10:53:59;4.07;;;0.52;;
59830;SDS011;45711;50.108;13.712;2024-02-23T10:56:25;2.88;;;0.60;;
59830;SDS011;45711;50.108;13.712;2024-02-23T10:58:53;3.45;;;0.50;;
59830;SDS011;45711;50.108;13.712;2024-02-23T11:01:21;1.08;;;0.60;;
59830;SDS011;45711;50.108;13.712;2024-02-23T11:03:52;2.58;;;0.70;;
59830;SDS011;45711;50.108;13.712;2024-02-23T11:06:20;0.77;;;0.50;;
59830;SDS011;45711;50.108;13.712;2024-02-23T11:08:53;1.88;;;0.60;;
59830;SDS011;45711;50.108;13.712;2024-02-23T11:11:31;1.92;;;0.60;;
59830;SDS011;45711;50.108;13.712;2024-02-23T11:14:02;4.32;;;0.73;;
59830;SDS011;45711;50.108;13.712;2024-02-23T11:16:28;1.98;;;0.95;;
59830;SDS011;45711;50.108;13.712;2024-02-23T11:19:08;5.50;;;1.45;;
59830;SDS011;45711;50.108;13.712;2024-02-23T11:21:36;2.95;;;0.68;;
59830;SDS011;45711;50.108;13.712;2024-02-23T11:24:02;2.80;;;0.70;;
59830;SDS011;45711;50.108;13.712;2024-02-23T11:26:28;1.55;;;0.50;;
59830;SDS011;45711;50.108;13.712;2024-02-23T11:28:54;2.53;;;0.60;;
59830;SDS011;45711;50.108;13.712;2024-02-23T11:31:22;4.05;;;0.82;;
59830;SDS011;45711;50.108;13.712;2024-02-23T11:33:49;2.75;;;0.80;;
59830;SDS011;45711;50.108;13.712;2024-02-23T11:36:21;2.22;;;0.50;;
59830;SDS011;45711;50.108;13.712;2024-02-23T11:38:47;3.80;;;0.98;;
59830;SDS011;45711;50.108;13.712;2024-02-23T11:41:13;4.03;;;0.77;;
59830;SDS011;45711;50.108;13.712;2024-02-23T11:43:39;2.45;;;0.60;;
59830;SDS011;45711;50.108;13.712;2024-02-23T11:46:06;7.22;;;0.80;;
59830;SDS011;45711;50.108;13.712;2024-02-23T11:48:34;6.53;;;0.82;;
59830;SDS011;45711;50.108;13.712;2024-02-23T11:50:59;4.10;;;0.88;;
59830;SDS011;45711;50.108;13.712;2024-02-23T11:53:25;1.77;;;0.55;;
59830;SDS011;45711;50.108;13.712;2024-02-23T11:55:52;3.13;;;0.90;;
59830;SDS011;45711;50.108;13.712;2024-02-23T11:58:18;2.75;;;0.68;;
59830;SDS011;45711;50.108;13.712;2024-02-23T12:00:43;3.40;;;1.00;;
59830;SDS011;45711;50.108;13.712;2024-02-23T12:03:11;3.65;;;1.15;;
59830;SDS011;45711;50.108;13.712;2024-02-23T12:05:38;1.98;;;0.80;;
59830;SDS011;45711;50.108;13.712;2024-02-23T12:08:06;2.08;;;1.00;;
59830;SDS011;45711;50.108;13.712;2024-02-23T12:10:32;3.60;;;1.20;;
59830;SDS011;45711;50.108;13.712;2024-02-23T12:12:58;7.45;;;1.27;;
59830;SDS011;45711;50.108;13.712;2024-02-23T12:15:24;8.60;;;1.55;;
59830;SDS011;45711;50.108;13.712;2024-02-23T12:17:50;5.40;;;1.48;;
59830;SDS011;45711;50.108;13.712;2024-02-23T12:20:15;2.03;;;1.00;;
59830;SDS011;45711;50.108;13.712;2024-02-23T12:22:46;3.65;;;1.00;;
59830;SDS011;45711;50.108;13.712;2024-02-23T12:25:17;4.07;;;0.98;;
59830;SDS011;45711;50.108;13.712;2024-02-23T12:27:44;6.28;;;1.08;;
59830;SDS011;45711;50.108;13.712;2024-02-23T12:30:15;3.47;;;0.70;;
59830;SDS011;45711;50.108;13.712;2024-02-23T12:32:42;4.22;;;0.77;;
59830;SDS011;45711;50.108;13.712;2024-02-23T12:35:10;2.75;;;0.98;;
59830;SDS011;45711;50.108;13.712;2024-02-23T12:37:35;2.50;;;1.02;;
59830;SDS011;45711;50.108;13.712;2024-02-23T12:40:03;2.28;;;0.90;;
59830;SDS011;45711;50.108;13.712;2024-02-23T12:42:30;5.35;;;1.15;;
59830;SDS011;45711;50.108;13.712;2024-02-23T12:44:55;13.52;;;1.17;;
59830;SDS011;45711;50.108;13.712;2024-02-23T12:47:21;3.20;;;0.98;;
59830;SDS011;45711;50.108;13.712;2024-02-23T12:49:46;4.95;;;1.05;;
59830;SDS011;45711;50.108;13.712;2024-02-23T12:52:17;3.40;;;0.88;;
59830;SDS011;45711;50.108;13.712;2024-02-23T12:54:42;5.38;;;1.15;;
59830;SDS011;45711;50.108;13.712;2024-02-23T12:57:09;3.45;;;0.90;;
59830;SDS011;45711;50.108;13.712;2024-02-23T12:59:35;3.90;;;0.88;;
59830;SDS011;45711;50.108;13.712;2024-02-23T13:02:00;3.53;;;0.90;;
59830;SDS011;45711;50.108;13.712;2024-02-23T13:04:26;9.48;;;1.20;;
59830;SDS011;45711;50.108;13.712;2024-02-23T13:06:52;3.50;;;0.90;;
59830;SDS011;45711;50.108;13.712;2024-02-23T13:09:19;3.80;;;1.15;;
59830;SDS011;45711;50.108;13.712;2024-02-23T13:11:44;2.35;;;0.98;;
59830;SDS011;45711;50.108;13.712;2024-02-23T13:14:13;3.10;;;1.00;;
59830;SDS011;45711;50.108;13.712;2024-02-23T13:16:45;5.32;;;1.50;;
59830;SDS011;45711;50.108;13.712;2024-02-23T13:19:11;4.43;;;1.05;;
59830;SDS011;45711;50.108;13.712;2024-02-23T13:21:36;4.90;;;1.10;;
59830;SDS011;45711;50.108;13.712;2024-02-23T13:24:02;3.67;;;0.90;;
59830;SDS011;45711;50.108;13.712;2024-02-23T13:26:28;4.28;;;1.38;;
59830;SDS011;45711;50.108;13.712;2024-02-23T13:28:53;4.63;;;1.30;;
59830;SDS011;45711;50.108;13.712;2024-02-23T13:31:20;3.67;;;1.30;;
59830;SDS011;45711;50.108;13.712;2024-02-23T13:33:46;2.67;;;0.77;;
59830;SDS011;45711;50.108;13.712;2024-02-23T13:36:12;4.38;;;1.10;;
59830;SDS011;45711;50.108;13.712;2024-02-23T13:38:37;4.15;;;1.00;;
59830;SDS011;45711;50.108;13.712;2024-02-23T13:41:04;3.28;;;1.00;;
59830;SDS011;45711;50.108;13.712;2024-02-23T13:43:30;5.00;;;1.10;;
59830;SDS011;45711;50.108;13.712;2024-02-23T13:45:56;6.28;;;1.33;;
59830;SDS011;45711;50.108;13.712;2024-02-23T13:48:23;5.88;;;1.52;;
59830;SDS011;45711;50.108;13.712;2024-02-23T13:50:49;5.43;;;1.65;;
59830;SDS011;45711;50.108;13.712;2024-02-23T13:53:14;5.72;;;1.50;;
59830;SDS011;45711;50.108;13.712;2024-02-23T13:55:40;5.32;;;1.27;;
59830;SDS011;45711;50.108;13.712;2024-02-23T13:58:09;3.00;;;1.00;;
59830;SDS011;45711;50.108;13.712;2024-02-23T14:00:35;3.92;;;1.10;;
59830;SDS011;45711;50.108;13.712;2024-02-23T14:03:02;6.57;;;1.17;;
59830;SDS011;45711;50.108;13.712;2024-02-23T14:05:29;4.07;;;1.52;;
59830;SDS011;45711;50.108;13.712;2024-02-23T14:07:55;2.97;;;1.10;;
59830;SDS011;45711;50.108;13.712;2024-02-23T14:10:20;5.30;;;1.38;;
59830;SDS011;45711;50.108;13.712;2024-02-23T14:12:46;5.53;;;1.00;;
59830;SDS011;45711;50.108;13.712;2024-02-23T14:15:12;3.35;;;1.02;;
59830;SDS011;45711;50.108;13.712;2024-02-23T14:17:40;3.42;;;1.20;;
59830;SDS011;45711;50.108;13.712;2024-02-23T14:20:06;9.02;;;1.35;;
59830;SDS011;45711;50.108;13.712;2024-02-23T14:22:33;6.28;;;1.20;;
59830;SDS011;45711;50.108;13.712;2024-02-23T14:24:59;4.03;;;1.20;;
59830;SDS011;45711;50.108;13.712;2024-02-23T14:27:24;3.00;;;0.90;;